Time;durP1;ratioP1;P1;durP2;ratioP2;P2;SDS_P1;SDS_P2;PMS_P1;PMS_P2;Temp;Humidity;BMP_temperature;BMP_pressure;BME280_temperature;BME280_humidity;BME280_pressure;Samples;Min_cycle;Max_cycle;Signal;HPM_P1;HPM_P2
2023/06/22 00:00:27;;;;;;;26.85;15.60;;;;;;;21.86;64.69;100298.91;1734788;82;21278;-81
2023/06/22 00:03:33;;;;;;;28.75;14.35;;;;;;;21.85;65.08;100305.58;1734766;82;21308;-81
2023/06/22 00:06:37;;;;;;;24.87;15.18;;;;;;;21.82;65.37;100305.52;1734922;82;21315;-81
2023/06/22 00:09:43;;;;;;;28.40;15.13;;;;;;;21.76;65.69;100311.26;1734937;82;21269;-79
2023/06/22 00:12:50;;;;;;;39.18;17.42;;;;;;;21.87;65.54;100308.95;1735326;82;21144;-81
2023/06/22 00:15:55;;;;;;;24.00;14.90;;;;;;;21.85;65.64;100311.16;1734938;82;21821;-80
2023/06/22 00:19:02;;;;;;;31.70;15.75;;;;;;;21.52;67.25;100308.59;1734999;83;21265;-81
2023/06/22 00:22:07;;;;;;;30.02;14.70;;;;;;;21.36;67.73;100307.45;1734844;82;21299;-81
2023/06/22 00:25:14;;;;;;;23.38;14.18;;;;;;;21.61;67.33;100309.04;1734933;82;21383;-80
2023/06/22 00:28:19;;;;;;;24.55;15.00;;;;;;;21.39;67.96;100310.27;1734631;82;21303;-81
2023/06/22 00:31:25;;;;;;;42.53;16.25;;;;;;;21.27;68.69;100300.55;1735699;82;21298;-80
2023/06/22 00:34:32;;;;;;;24.45;14.58;;;;;;;21.44;68.36;100297.84;1734403;82;21880;-81
2023/06/22 00:37:38;;;;;;;24.67;13.75;;;;;;;21.36;68.91;100303.28;1770175;81;21833;-81
2023/06/22 00:40:44;;;;;;;25.37;13.45;;;;;;;21.47;68.51;100302.08;1771291;81;21308;-81
2023/06/22 00:43:51;;;;;;;24.35;14.68;;;;;;;21.44;68.73;100303.41;1771572;81;21264;-80
2023/06/22 00:46:56;;;;;;;24.35;13.22;;;;;;;21.44;68.96;100302.02;1770440;81;21893;-80
2023/06/22 00:50:03;;;;;;;24.80;13.55;;;;;;;21.26;69.59;100309.13;1771588;81;21296;-79
2023/06/22 00:53:17;;;;;;;24.63;13.30;;;;;;;21.35;69.32;100314.63;1771555;81;21830;-82
2023/06/22 00:56:24;;;;;;;17.48;12.63;;;;;;;21.35;69.33;100321.03;1771710;81;21308;-82
2023/06/22 00:59:29;;;;;;;27.48;13.25;;;;;;;21.23;69.75;100312.42;1770729;81;21264;-82
2023/06/22 01:02:36;;;;;;;18.52;12.03;;;;;;;21.03;70.21;100310.90;1771558;81;21615;-80
2023/06/22 01:05:42;;;;;;;23.00;12.37;;;;;;;21.15;69.79;100310.86;1771223;81;21359;-80
2023/06/22 01:09:05;;;;;;;23.27;11.18;;;;;;;21.30;68.91;100313.95;1771020;81;21332;-80
2023/06/22 01:12:13;;;;;;;24.40;11.08;;;;;;;21.25;68.75;100315.78;1770227;81;21315;-81
2023/06/22 01:15:40;;;;;;;21.27;10.50;;;;;;;21.33;68.19;100307.94;1771300;81;21769;-81
2023/06/22 01:18:48;;;;;;;16.75;9.68;;;;;;;21.07;68.52;100317.63;1770037;81;21296;-78
2023/06/22 01:21:55;;;;;;;18.80;9.23;;;;;;;20.80;69.08;100317.34;1771663;81;21334;-80
2023/06/22 01:25:23;;;;;;;20.20;10.40;;;;;;;20.89;68.61;100319.20;1771618;81;21273;-79
2023/06/22 01:29:01;;;;;;;16.85;9.90;;;;;;;20.89;68.31;100321.98;1771629;81;21300;-79
2023/06/22 01:32:08;;;;;;;11.25;8.35;;;;;;;20.82;68.19;100322.64;1771592;81;21269;-80
2023/06/22 01:35:15;;;;;;;13.88;8.53;;;;;;;20.79;68.03;100321.73;1768201;81;21268;-78
2023/06/22 01:38:19;;;;;;;15.20;8.70;;;;;;;20.61;68.12;100316.62;1772087;80;21260;-80
2023/06/22 01:41:27;;;;;;;16.48;8.25;;;;;;;20.61;67.87;100316.62;1771966;81;21322;-78
2023/06/22 01:44:32;;;;;;;16.45;7.40;;;;;;;20.78;67.28;100321.44;1772010;81;21264;-79
2023/06/22 01:47:37;;;;;;;13.70;7.30;;;;;;;20.91;66.48;100323.42;1771773;81;21265;-79
2023/06/22 01:50:43;;;;;;;17.80;7.25;;;;;;;20.82;66.51;100321.25;1770301;81;21295;-80
2023/06/22 01:53:49;;;;;;;13.58;7.28;;;;;;;20.61;67.04;100328.30;1734626;83;21264;-80
2023/06/22 01:56:55;;;;;;;11.38;7.35;;;;;;;20.76;66.51;100331.97;1770751;80;21292;-78
2023/06/22 02:00:13;;;;;;;12.05;7.80;;;;;;;20.60;67.01;100337.14;1732966;83;21283;-80
2023/06/22 02:03:27;;;;;;;13.65;6.58;;;;;;;20.77;66.68;100341.44;1732746;83;21269;-79
2023/06/22 02:06:37;;;;;;;13.05;6.60;;;;;;;21.03;65.99;100347.56;1751987;81;21340;-78
2023/06/22 02:09:42;;;;;;;13.48;6.67;;;;;;;21.21;65.22;100346.02;1769725;81;21854;-79
2023/06/22 02:12:49;;;;;;;16.90;8.98;;;;;;;21.51;64.30;100350.59;1756086;80;21090;-79
2023/06/22 02:15:58;;;;;;;15.32;7.40;;;;;;;21.83;62.71;100353.70;1769230;81;21807;-79
2023/06/22 02:19:06;;;;;;;14.80;7.22;;;;;;;21.97;62.04;100355.63;1770926;81;21262;-80
2023/06/22 02:22:05;;;;;;;12.68;6.83;;;;;;;22.24;60.57;100358.66;1770720;81;21347;-80
2023/06/22 02:25:11;;;;;;;14.28;7.42;;;;;;;22.46;59.50;100360.99;1769774;81;21321;-80
2023/06/22 02:28:17;;;;;;;13.65;7.30;;;;;;;22.53;58.96;100358.86;1769948;81;21264;-80
2023/06/22 02:31:30;;;;;;;15.83;7.10;;;;;;;22.66;58.09;100368.28;1771332;80;21272;-79
2023/06/22 02:34:33;;;;;;;12.37;6.65;;;;;;;22.90;57.17;100370.91;1769162;81;21308;-79
2023/06/22 02:37:33;;;;;;;16.82;6.67;;;;;;;23.10;56.53;100375.41;1760894;81;21315;-80
2023/06/22 02:40:25;;;;;;;21.27;7.20;;;;;;;23.49;54.85;100385.67;1759832;81;21312;-81
2023/06/22 02:43:31;;;;;;;9.98;6.67;;;;;;;23.51;54.52;100389.04;1760863;81;21281;-81
2023/06/22 02:46:36;;;;;;;11.18;6.30;;;;;;;23.90;52.99;100392.59;1760211;81;21268;-83
2023/06/22 02:49:44;;;;;;;16.93;7.00;;;;;;;24.22;51.78;100385.11;1767252;80;21297;-80
2023/06/22 02:52:45;;;;;;;19.17;7.25;;;;;;;24.50;50.92;100395.74;1790851;80;21212;-82
2023/06/22 02:55:52;;;;;;;19.35;7.17;;;;;;;24.66;50.07;100398.97;1790261;80;21350;-80
2023/06/22 02:59:01;;;;;;;17.15;7.03;;;;;;;24.91;49.90;100402.51;1790747;80;21836;-82
2023/06/22 03:02:07;;;;;;;17.35;6.87;;;;;;;24.94;49.50;100405.34;1788582;80;21261;-81
2023/06/22 03:05:17;;;;;;;16.62;6.50;;;;;;;25.04;49.01;100401.20;1787594;80;21372;-82
2023/06/22 03:08:24;;;;;;;17.87;6.87;;;;;;;25.07;48.50;100404.00;1769213;80;21856;-81
2023/06/22 03:11:30;;;;;;;19.67;7.58;;;;;;;25.15;48.11;100402.97;1786332;80;21662;-81
2023/06/22 03:14:36;;;;;;;13.75;7.78;;;;;;;24.92;47.66;100406.98;1787662;80;21292;-80
2023/06/22 03:17:42;;;;;;;22.30;7.62;;;;;;;24.81;48.01;100414.19;1786961;80;21304;-81
2023/06/22 03:20:49;;;;;;;15.70;7.53;;;;;;;24.96;47.59;100417.93;1786904;80;21789;-82
2023/06/22 03:23:55;;;;;;;16.93;7.28;;;;;;;25.06;47.56;100422.75;1787587;79;21289;-80
2023/06/22 03:27:04;;;;;;;13.93;6.80;;;;;;;25.22;47.42;100418.98;1786415;80;21300;-81
2023/06/22 03:30:10;;;;;;;20.50;7.40;;;;;;;25.50;46.65;100416.87;1787359;80;21873;-80
2023/06/22 03:33:16;;;;;;;14.35;6.70;;;;;;;25.47;46.23;100428.63;1786716;80;21890;-80
2023/06/22 03:36:22;;;;;;;17.85;7.37;;;;;;;25.47;46.59;100441.23;1785825;80;21315;-82
2023/06/22 03:39:27;;;;;;;19.45;8.65;;;;;;;25.70;46.22;100439.95;1787489;80;21316;-81
2023/06/22 03:42:34;;;;;;;13.43;6.62;;;;;;;25.92;45.04;100439.77;1787401;80;21837;-80
2023/06/22 03:45:40;;;;;;;17.00;6.17;;;;;;;25.89;44.86;100436.97;1787684;80;21283;-81
2023/06/22 03:48:46;;;;;;;14.87;6.25;;;;;;;25.84;45.00;100443.13;1787735;80;21296;-81
2023/06/22 03:51:51;;;;;;;18.10;7.08;;;;;;;25.83;44.84;100447.02;1786559;80;21284;-81
2023/06/22 03:54:50;;;;;;;12.07;6.22;;;;;;;25.92;44.43;100442.57;1787851;80;21885;-80
2023/06/22 03:57:57;;;;;;;12.82;6.17;;;;;;;25.85;44.00;100444.80;1787773;80;21249;-81
2023/06/22 04:01:01;;;;;;;15.88;6.87;;;;;;;25.70;44.53;100449.20;1787792;80;21296;-81
2023/06/22 04:04:07;;;;;;;21.62;6.47;;;;;;;25.86;44.43;100454.88;1786448;80;21865;-81
2023/06/22 04:07:14;;;;;;;19.98;6.70;;;;;;;25.93;43.93;100458.29;1786212;80;21304;-80
2023/06/22 04:10:24;;;;;;;16.55;6.33;;;;;;;26.01;43.58;100467.55;1787520;80;21857;-82
2023/06/22 04:13:30;;;;;;;15.18;5.78;;;;;;;26.04;43.40;100470.37;1786335;80;21292;-80
2023/06/22 04:16:36;;;;;;;16.67;6.42;;;;;;;26.20;43.34;100465.92;1786686;80;21835;-81
2023/06/22 04:19:44;;;;;;;11.88;5.67;;;;;;;26.05;43.21;100468.69;1787566;80;21343;-82
2023/06/22 04:22:49;;;;;;;17.37;6.87;;;;;;;26.11;43.12;100470.94;1787782;80;21291;-82
2023/06/22 04:25:56;;;;;;;12.82;5.83;;;;;;;26.17;42.89;100479.11;1787758;80;21296;-80
2023/06/22 04:29:05;;;;;;;16.07;6.28;;;;;;;26.31;41.86;100482.80;1787750;80;21857;-82
2023/06/22 04:32:12;;;;;;;12.82;5.72;;;;;;;26.26;41.67;100485.02;1786291;80;21340;-81
2023/06/22 04:35:18;;;;;;;17.30;6.15;;;;;;;26.23;41.67;100487.80;1787337;80;21335;-81
2023/06/22 04:38:24;;;;;;;20.00;6.70;;;;;;;26.21;41.86;100485.84;1785286;80;21332;-81
2023/06/22 04:41:41;;;;;;;14.18;6.28;;;;;;;26.26;42.31;100485.02;1786701;80;21834;-81
2023/06/22 04:44:39;;;;;;;11.53;6.30;;;;;;;26.29;41.51;100493.42;1787572;80;21281;-82
2023/06/22 04:47:46;;;;;;;14.00;6.22;;;;;;;26.38;41.80;100495.97;1787644;80;21281;-82
2023/06/22 04:50:53;;;;;;;13.58;5.37;;;;;;;26.49;41.60;100500.53;1786973;80;21924;-81
2023/06/22 04:54:06;;;;;;;17.00;6.03;;;;;;;26.49;41.17;100500.53;1787643;80;21284;-83
2023/06/22 04:57:13;;;;;;;12.63;6.00;;;;;;;26.40;41.16;100510.02;1786319;80;21292;-81
2023/06/22 05:00:22;;;;;;;17.73;6.85;;;;;;;26.52;40.57;100504.17;1787587;80;21873;-82
2023/06/22 05:03:28;;;;;;;22.87;6.00;;;;;;;26.70;41.18;100503.64;1787815;80;21829;-82
2023/06/22 05:06:34;;;;;;;11.43;5.55;;;;;;;26.81;40.19;100514.87;1786662;80;21309;-80
2023/06/22 05:09:40;;;;;;;17.67;7.10;;;;;;;26.93;40.55;100512.08;1787594;80;21272;-80
2023/06/22 05:12:48;;;;;;;16.10;6.05;;;;;;;27.11;40.83;100521.11;1786803;79;21710;-80
2023/06/22 05:15:48;;;;;;;14.30;6.33;;;;;;;26.99;39.28;100517.12;1787248;80;21702;-81
2023/06/22 05:18:54;;;;;;;18.70;6.03;;;;;;;26.96;40.28;100523.28;1787476;80;21896;-82
2023/06/22 05:22:00;;;;;;;14.03;6.25;;;;;;;27.02;40.11;100519.38;1786693;79;21351;-83
2023/06/22 05:25:05;;;;;;;14.10;6.00;;;;;;;26.93;39.10;100535.94;1796322;80;21273;-82
2023/06/22 05:28:12;;;;;;;13.03;6.35;;;;;;;26.91;40.22;100528.91;1756783;81;21295;-82
2023/06/22 05:31:19;;;;;;;10.40;5.17;;;;;;;27.11;38.66;100527.55;1767193;80;21307;-80
2023/06/22 05:34:26;;;;;;;14.60;5.70;;;;;;;27.14;38.70;100528.94;1771361;81;21848;-82
2023/06/22 05:37:32;;;;;;;19.20;5.87;;;;;;;27.17;40.11;100522.78;1771619;80;21762;-81
2023/06/22 05:40:38;;;;;;;9.43;5.83;;;;;;;27.26;39.54;100532.32;1773405;80;21304;-81
2023/06/22 05:43:44;;;;;;;13.38;5.65;;;;;;;27.28;38.82;100531.46;1796403;79;21300;-81
2023/06/22 05:46:52;;;;;;;9.85;5.03;;;;;;;27.24;39.30;100524.72;1791754;80;21873;-80
2023/06/22 05:49:58;;;;;;;15.93;5.17;;;;;;;27.44;39.99;100518.27;1791731;80;21336;-80
2023/06/22 05:53:06;;;;;;;10.38;5.50;;;;;;;27.76;39.10;100532.83;1792028;80;21335;-82
2023/06/22 05:56:12;;;;;;;10.85;5.12;;;;;;;27.73;39.04;100530.58;1793414;80;21332;-81
2023/06/22 05:59:18;;;;;;;9.13;5.47;;;;;;;27.63;39.97;100530.58;1787676;79;21841;-82
2023/06/22 06:02:25;;;;;;;13.70;4.97;;;;;;;27.98;38.27;100531.63;1795622;79;21280;-81
2023/06/22 06:05:30;;;;;;;12.55;5.45;;;;;;;28.15;37.99;100539.16;1802497;79;21287;-80
2023/06/22 06:08:36;;;;;;;15.78;5.00;;;;;;;28.23;38.29;100538.56;1787928;79;21301;-83
2023/06/22 06:11:42;;;;;;;20.10;5.08;;;;;;;28.36;38.37;100541.89;1767325;79;21264;-80
2023/06/22 06:14:47;;;;;;;20.15;5.75;;;;;;;28.42;37.64;100530.34;1799247;79;21291;-82
2023/06/22 06:17:59;;;;;;;16.20;5.40;;;;;;;28.37;37.55;100537.41;1769243;81;21835;-81
2023/06/22 06:21:05;;;;;;;10.90;4.97;;;;;;;28.35;38.23;100528.97;1793124;79;21812;-82
2023/06/22 06:24:10;;;;;;;13.95;5.08;;;;;;;28.42;37.05;100530.88;1774799;80;21661;-82
2023/06/22 06:27:18;;;;;;;16.80;6.03;;;;;;;28.39;36.85;100527.27;1702201;83;21980;-80
2023/06/22 06:30:24;;;;;;;18.85;5.00;;;;;;;28.51;37.36;100527.73;1696342;84;21872;-81
2023/06/22 06:33:31;;;;;;;10.00;4.72;;;;;;;28.62;37.03;100521.50;1703627;84;21301;-82
2023/06/22 06:36:37;;;;;;;9.63;5.25;;;;;;;28.70;36.05;100516.10;1766632;80;21311;-80
2023/06/22 06:39:43;;;;;;;12.10;5.42;;;;;;;28.75;35.97;100519.45;1766705;81;21307;-82
2023/06/22 06:42:55;;;;;;;9.70;4.95;;;;;;;28.84;35.92;100531.73;1759701;81;21283;-81
2023/06/22 06:46:03;;;;;;;9.53;4.65;;;;;;;28.90;37.05;100532.56;1758841;81;21304;-81
2023/06/22 06:49:07;;;;;;;9.85;5.03;;;;;;;29.02;36.17;100535.29;1762921;79;21309;-81
2023/06/22 06:52:14;;;;;;;8.25;4.40;;;;;;;28.95;36.01;100540.42;1766840;80;21277;-81
2023/06/22 06:55:20;;;;;;;15.75;5.10;;;;;;;28.91;36.13;100536.48;1762122;81;21705;-82
2023/06/22 06:58:26;;;;;;;12.23;4.72;;;;;;;28.93;36.01;100536.18;1763181;81;21192;-81
2023/06/22 07:01:33;;;;;;;12.20;4.80;;;;;;;29.00;34.93;100538.14;1772721;79;21674;-81
2023/06/22 07:04:39;;;;;;;9.05;4.55;;;;;;;29.08;34.74;100549.33;1797306;79;21280;-80
2023/06/22 07:07:46;;;;;;;9.55;4.28;;;;;;;29.17;33.46;100549.84;1796663;79;21821;-81
2023/06/22 07:10:53;;;;;;;16.40;4.90;;;;;;;29.26;34.00;100554.24;1799161;79;21979;-82
2023/06/22 07:14:00;;;;;;;14.63;4.60;;;;;;;29.28;33.38;100551.42;1800760;79;21319;-81
2023/06/22 07:17:06;;;;;;;7.78;4.05;;;;;;;29.26;33.30;100554.24;1800681;79;21354;-83
2023/06/22 07:20:13;;;;;;;6.17;3.67;;;;;;;29.29;32.86;100559.30;1802008;79;21292;-81
2023/06/22 07:23:18;;;;;;;7.28;4.17;;;;;;;29.40;32.56;100561.45;1801956;79;21679;-81
2023/06/22 07:26:23;;;;;;;13.53;4.37;;;;;;;29.19;32.85;100565.02;1795973;79;21347;-82
2023/06/22 07:29:29;;;;;;;9.05;3.92;;;;;;;29.39;33.14;100559.77;1782018;80;21272;-80
2023/06/22 07:32:34;;;;;;;10.30;4.30;;;;;;;29.45;32.76;100551.53;1790082;80;21272;-81
2023/06/22 07:35:40;;;;;;;7.92;3.80;;;;;;;29.49;33.06;100555.45;1783640;79;21331;-81
2023/06/22 07:38:47;;;;;;;10.25;4.58;;;;;;;29.54;32.22;100570.89;1790125;80;21312;-80
2023/06/22 07:41:52;;;;;;;12.18;4.28;;;;;;;29.45;32.69;100549.59;1792494;79;21276;-82
2023/06/22 07:44:57;;;;;;;8.80;4.50;;;;;;;29.52;32.81;100565.56;1795672;80;21276;-80
2023/06/22 07:48:04;;;;;;;10.70;4.03;;;;;;;29.63;32.43;100563.51;1787229;80;21860;-82
2023/06/22 07:51:13;;;;;;;8.58;3.67;;;;;;;29.62;33.08;100562.41;1764583;80;21909;-82
2023/06/22 07:54:19;;;;;;;9.70;4.10;;;;;;;29.83;33.08;100559.66;1753547;82;21874;-82
2023/06/22 07:57:32;;;;;;;8.05;3.65;;;;;;;29.92;31.99;100562.63;1766639;79;21268;-82
2023/06/22 08:00:33;;;;;;;14.13;3.85;;;;;;;30.09;32.21;100561.59;1763941;80;21326;-80
2023/06/22 08:03:39;;;;;;;5.35;3.70;;;;;;;30.23;31.66;100567.38;1764249;81;21574;-81
2023/06/22 08:06:45;;;;;;;6.22;3.70;;;;;;;30.18;31.50;100567.45;1792893;80;21280;-80
2023/06/22 08:09:54;;;;;;;5.30;3.75;;;;;;;29.97;31.36;100570.49;1796515;79;21282;-82
2023/06/22 08:12:52;;;;;;;6.05;3.87;;;;;;;30.01;30.96;100570.14;1796620;80;21208;-82
2023/06/22 08:15:58;;;;;;;8.20;3.90;;;;;;;30.02;31.16;100569.59;1796074;79;21272;-81
2023/06/22 08:19:03;;;;;;;6.53;3.25;;;;;;;30.02;31.81;100571.84;1796181;79;21260;-80
2023/06/22 08:22:08;;;;;;;10.53;3.58;;;;;;;30.11;31.21;100568.34;1756627;80;21265;-80
2023/06/22 08:25:15;;;;;;;7.85;3.42;;;;;;;30.33;30.72;100572.05;1800505;79;21748;-81
2023/06/22 08:28:21;;;;;;;7.40;3.50;;;;;;;30.36;30.29;100574.28;1759554;81;21297;-81
2023/06/22 08:31:27;;;;;;;8.38;3.47;;;;;;;30.59;30.30;100573.41;1758399;81;21712;-80
2023/06/22 08:34:34;;;;;;;7.30;4.05;;;;;;;30.92;30.16;100578.59;1765835;80;21857;-81
2023/06/22 08:37:41;;;;;;;5.03;3.70;;;;;;;30.41;30.27;100581.27;1766099;79;21326;-81
2023/06/22 08:40:47;;;;;;;5.35;3.85;;;;;;;30.41;30.59;100579.86;1794628;79;21946;-82
2023/06/22 08:43:53;;;;;;;7.00;4.05;;;;;;;30.59;30.54;100573.41;1801298;79;21292;-82
2023/06/22 08:46:59;;;;;;;7.28;4.00;;;;;;;30.63;29.49;100567.42;1800368;79;21279;-81
2023/06/22 08:50:05;;;;;;;8.28;3.50;;;;;;;30.55;30.14;100571.75;1790764;79;21824;-81
2023/06/22 08:53:10;;;;;;;8.00;3.55;;;;;;;30.38;30.27;100558.72;1793812;80;21344;-81
2023/06/22 08:56:10;;;;;;;5.65;3.47;;;;;;;30.38;30.45;100567.75;1794611;80;22164;-81
2023/06/22 08:59:17;;;;;;;5.97;3.35;;;;;;;30.38;30.31;100567.18;1795405;80;21861;-82
2023/06/22 09:02:22;;;;;;;4.55;3.27;;;;;;;30.27;30.16;100568.47;1795666;80;21280;-82
2023/06/22 09:05:28;;;;;;;11.00;4.10;;;;;;;30.38;29.77;100564.36;1786762;79;22148;-82
2023/06/22 09:08:34;;;;;;;9.80;3.47;;;;;;;30.45;29.40;100565.41;1756193;79;21857;-81
2023/06/22 09:11:40;;;;;;;4.83;3.60;;;;;;;30.50;29.10;100565.34;1787837;79;21339;-81
2023/06/22 09:14:46;;;;;;;7.47;3.50;;;;;;;30.42;29.23;100562.61;1776054;79;21277;-81
2023/06/22 09:17:54;;;;;;;6.33;3.50;;;;;;;30.34;29.23;100558.21;1784590;80;21819;-81
2023/06/22 09:21:01;;;;;;;7.15;3.55;;;;;;;30.39;28.23;100545.44;1774820;79;21854;-81
2023/06/22 09:24:08;;;;;;;5.05;3.22;;;;;;;30.35;28.88;100552.83;1783270;79;21321;-82
2023/06/22 09:27:14;;;;;;;6.00;3.30;;;;;;;30.20;27.11;100564.58;1780356;79;21960;-80
2023/06/22 09:30:20;;;;;;;4.20;2.85;;;;;;;30.20;27.25;100553.88;1706932;83;21334;-78
2023/06/22 09:33:19;;;;;;;6.03;3.55;;;;;;;30.22;28.02;100572.19;1794600;79;21287;-82
2023/06/22 09:36:24;;;;;;;5.58;3.30;;;;;;;30.05;27.61;100554.88;1790035;80;21292;-81
2023/06/22 09:39:30;;;;;;;5.58;3.10;;;;;;;30.08;27.52;100554.28;1789849;80;21332;-82
2023/06/22 09:42:36;;;;;;;6.87;3.45;;;;;;;30.19;27.29;100557.84;1770645;79;21295;-81
2023/06/22 09:45:42;;;;;;;5.70;3.15;;;;;;;30.00;25.82;100560.58;1771412;80;21304;-81
2023/06/22 09:48:47;;;;;;;3.87;2.98;;;;;;;30.06;26.27;100562.19;1771205;80;21267;-81
2023/06/22 09:51:54;;;;;;;6.35;3.22;;;;;;;30.20;24.97;100554.70;1787135;79;21658;-81
2023/06/22 09:55:00;;;;;;;6.37;3.17;;;;;;;30.25;24.47;100551.84;1774873;81;21955;-81
2023/06/22 09:58:07;;;;;;;4.72;2.77;;;;;;;30.22;24.68;100548.21;1704364;83;21889;-80
2023/06/22 10:01:14;;;;;;;5.22;2.83;;;;;;;30.31;23.16;100546.14;1738617;81;21726;-83
2023/06/22 10:04:20;;;;;;;5.42;3.02;;;;;;;30.52;23.41;100541.87;1724382;82;21352;-83
2023/06/22 10:07:27;;;;;;;4.90;3.20;;;;;;;30.60;24.18;100546.85;1693487;83;21272;-81
2023/06/22 10:10:32;;;;;;;4.33;3.30;;;;;;;30.73;23.41;100544.72;1792701;79;21319;-82
2023/06/22 10:13:39;;;;;;;6.03;3.15;;;;;;;30.78;23.69;100539.56;1792270;80;21273;-80
2023/06/22 10:16:46;;;;;;;5.90;3.30;;;;;;;30.88;24.21;100546.45;1771777;80;21333;-82
2023/06/22 10:19:51;;;;;;;3.75;2.92;;;;;;;31.00;24.26;100538.34;1780248;79;21320;-82
2023/06/22 10:22:56;;;;;;;9.13;3.45;;;;;;;31.05;24.51;100545.34;1799506;79;21324;-81
2023/06/22 10:26:03;;;;;;;3.72;3.10;;;;;;;31.04;24.31;100531.52;1794459;79;21339;-82
2023/06/22 10:29:09;;;;;;;4.53;3.22;;;;;;;30.83;23.47;100534.41;1705785;84;21292;-81
2023/06/22 10:32:16;;;;;;;5.25;3.55;;;;;;;30.75;24.35;100528.30;1706429;83;21327;-80
2023/06/22 10:35:22;;;;;;;6.67;3.80;;;;;;;30.64;25.14;100525.92;1716100;82;21218;-81
2023/06/22 10:38:28;;;;;;;12.37;3.77;;;;;;;30.73;24.63;100524.12;1793307;79;21254;-80
2023/06/22 10:41:34;;;;;;;5.05;3.37;;;;;;;30.82;24.21;100535.53;1769371;80;21304;-81
2023/06/22 10:44:43;;;;;;;5.92;3.42;;;;;;;30.86;23.37;100524.73;1777813;80;21874;-80
2023/06/22 10:47:48;;;;;;;5.92;3.52;;;;;;;30.80;23.50;100523.14;1702363;84;21273;-82
2023/06/22 10:50:55;;;;;;;5.50;3.47;;;;;;;30.84;23.91;100523.38;1760014;79;21344;-82
2023/06/22 10:54:01;;;;;;;3.87;3.12;;;;;;;30.99;23.90;100518.89;1797359;80;21331;-81
2023/06/22 10:57:07;;;;;;;8.55;3.33;;;;;;;31.03;23.73;100508.66;1793319;80;21315;-81
2023/06/22 11:00:13;;;;;;;8.35;3.58;;;;;;;31.09;24.98;100524.94;1792448;79;21403;-80
2023/06/22 11:03:19;;;;;;;7.12;3.85;;;;;;;31.21;24.02;100514.00;1800875;79;21307;-82
2023/06/22 11:06:26;;;;;;;9.50;3.45;;;;;;;31.26;24.11;100506.84;1800490;79;21307;-83
2023/06/22 11:09:32;;;;;;;6.17;3.80;;;;;;;31.21;23.94;100506.36;1795367;79;21316;-82
2023/06/22 11:12:39;;;;;;;5.30;3.08;;;;;;;31.16;24.05;100523.41;1791393;80;21272;-81
2023/06/22 11:15:45;;;;;;;5.72;3.70;;;;;;;31.04;23.76;100521.05;1791018;80;21336;-81
2023/06/22 11:18:50;;;;;;;4.53;3.25;;;;;;;31.07;23.90;100511.13;1772461;80;21868;-82
2023/06/22 11:21:56;;;;;;;7.30;3.60;;;;;;;31.17;23.57;100513.77;1767456;80;21841;-83
2023/06/22 11:25:02;;;;;;;9.40;3.47;;;;;;;30.87;24.64;100516.55;1759812;81;21328;-81
2023/06/22 11:28:09;;;;;;;4.65;3.85;;;;;;;30.91;24.30;100515.34;1759722;81;21299;-81
2023/06/22 11:31:15;;;;;;;5.25;3.27;;;;;;;30.85;23.85;100510.93;1760465;81;21305;-82
2023/06/22 11:34:23;;;;;;;3.77;3.30;;;;;;;30.76;23.73;100504.56;1761334;81;21877;-82
2023/06/22 11:37:28;;;;;;;4.83;3.55;;;;;;;30.85;23.64;100511.77;1759052;81;21331;-82
2023/06/22 11:40:33;;;;;;;4.45;3.08;;;;;;;30.96;24.04;100498.31;1758792;81;21267;-83
2023/06/22 11:43:39;;;;;;;4.45;3.47;;;;;;;30.96;24.28;100501.13;1758967;81;21301;-82
2023/06/22 11:46:45;;;;;;;5.90;3.62;;;;;;;30.92;23.37;100498.69;1757549;81;21324;-81
2023/06/22 11:49:51;;;;;;;5.87;3.62;;;;;;;30.93;23.54;100499.78;1757544;81;21786;-81
2023/06/22 11:52:58;;;;;;;5.47;3.75;;;;;;;30.92;23.52;100500.10;1757687;81;21276;-81
2023/06/22 11:56:05;;;;;;;7.15;3.22;;;;;;;30.95;24.22;100503.12;1757602;81;21280;-81
2023/06/22 11:59:11;;;;;;;5.75;3.65;;;;;;;30.96;23.47;100506.78;1757757;81;21968;-82
2023/06/22 12:02:17;;;;;;;5.65;3.72;;;;;;;31.00;23.13;100503.61;1758760;81;21305;-82
2023/06/22 12:05:27;;;;;;;5.40;3.55;;;;;;;31.17;23.60;100509.54;1758061;81;21347;-81
2023/06/22 12:08:33;;;;;;;4.67;3.30;;;;;;;31.30;23.08;100521.49;1778478;80;21324;-80
2023/06/22 12:11:33;;;;;;;6.87;3.40;;;;;;;31.25;23.36;100520.72;1794108;80;21320;-80
2023/06/22 12:14:40;;;;;;;8.40;3.30;;;;;;;31.12;23.22;100518.68;1794644;80;21277;-80
2023/06/22 12:17:48;;;;;;;8.35;3.70;;;;;;;31.09;23.46;100522.11;1794554;80;21315;-80
2023/06/22 12:20:53;;;;;;;4.97;3.70;;;;;;;31.09;23.46;100522.11;1794078;80;21657;-82
2023/06/22 12:23:59;;;;;;;5.45;3.30;;;;;;;30.94;23.58;100520.38;1794593;80;21315;-81
2023/06/22 12:27:05;;;;;;;4.90;3.90;;;;;;;30.93;24.05;100520.12;1793422;80;21279;-80
2023/06/22 12:30:13;;;;;;;7.80;3.58;;;;;;;31.05;24.07;100506.34;1794559;80;21257;-82
2023/06/22 12:33:18;;;;;;;8.10;3.98;;;;;;;31.02;24.11;100506.98;1794456;80;21276;-82
2023/06/22 12:36:23;;;;;;;7.97;3.50;;;;;;;30.78;24.58;100509.34;1795590;80;21837;-81
2023/06/22 12:39:28;;;;;;;7.35;3.45;;;;;;;30.76;24.61;100510.78;1778811;80;21296;-81
2023/06/22 12:42:33;;;;;;;8.55;3.65;;;;;;;30.91;23.94;100504.05;1796574;80;21845;-79
2023/06/22 12:45:40;;;;;;;9.08;3.20;;;;;;;30.82;24.53;100510.98;1788244;79;21326;-80
2023/06/22 12:48:42;;;;;;;4.17;3.50;;;;;;;30.85;24.92;100509.52;1747277;82;21818;-81
2023/06/22 12:53:52;;;;;;;6.10;3.83;;;;;;;30.93;24.33;100503.18;1877651;76;22177;-79
2023/06/22 12:56:59;;;;;;;5.33;3.30;;;;;;;30.80;24.65;100511.84;1780452;80;21330;-80
2023/06/22 13:00:07;;;;;;;7.75;2.87;;;;;;;30.76;24.56;100516.43;1781938;80;21852;-79
2023/06/22 13:03:13;;;;;;;4.78;3.45;;;;;;;30.55;23.89;100498.37;1748468;82;21291;-81
2023/06/22 13:06:19;;;;;;;7.72;3.17;;;;;;;30.55;23.89;100498.37;1734518;82;21394;-80
2023/06/22 13:09:27;;;;;;;6.42;3.67;;;;;;;30.55;24.34;100506.00;1751208;82;21348;-80
2023/06/22 13:12:33;;;;;;;7.28;3.60;;;;;;;30.49;23.95;100493.95;1750476;82;21332;-80
2023/06/22 13:15:38;;;;;;;5.03;3.50;;;;;;;30.43;24.39;100495.73;1751230;82;21310;-80
2023/06/22 13:18:44;;;;;;;5.67;3.10;;;;;;;30.73;23.59;100495.31;1751391;82;21280;-80
2023/06/22 13:21:50;;;;;;;4.70;3.27;;;;;;;30.82;23.68;100495.46;1751553;82;21875;-79
2023/06/22 13:24:56;;;;;;;5.65;3.58;;;;;;;31.11;23.66;100485.36;1751682;82;21280;-80
2023/06/22 13:28:02;;;;;;;5.83;3.62;;;;;;;30.92;23.74;100485.98;1751717;82;21283;-81
2023/06/22 13:31:09;;;;;;;5.10;3.15;;;;;;;30.99;23.72;100483.58;1750148;82;21337;-80
2023/06/22 13:34:16;;;;;;;3.62;3.00;;;;;;;30.85;23.66;100496.23;1750142;82;21326;-81
2023/06/22 13:37:21;;;;;;;9.65;3.47;;;;;;;30.67;24.16;100493.66;1751531;82;21374;-81
2023/06/22 13:40:26;;;;;;;6.85;3.30;;;;;;;30.85;24.37;100491.16;1751416;82;21362;-80
2023/06/22 13:43:32;;;;;;;5.28;3.87;;;;;;;30.72;24.30;100492.77;1750273;82;21314;-80
2023/06/22 13:46:37;;;;;;;4.12;3.42;;;;;;;30.89;23.92;100491.66;1750308;82;21326;-81
2023/06/22 13:49:44;;;;;;;7.90;3.55;;;;;;;30.75;24.48;100483.12;1751482;82;21275;-82
2023/06/22 13:52:51;;;;;;;4.53;3.50;;;;;;;30.86;24.44;100488.02;1748539;82;21291;-82
2023/06/22 13:55:58;;;;;;;3.85;3.35;;;;;;;30.82;24.57;100482.75;1730989;83;21321;-82
2023/06/22 13:59:06;;;;;;;5.92;3.45;;;;;;;30.97;23.47;100478.83;1731525;83;21294;-81
2023/06/22 14:02:13;;;;;;;9.28;3.77;;;;;;;30.83;23.80;100468.89;1730202;83;21313;-81
2023/06/22 14:05:20;;;;;;;9.03;3.40;;;;;;;30.97;25.11;100468.95;1730601;83;21337;-81
2023/06/22 14:08:27;;;;;;;6.90;3.65;;;;;;;30.89;24.49;100462.58;1730565;83;21321;-82
2023/06/22 14:11:35;;;;;;;6.65;3.02;;;;;;;30.97;24.66;100463.30;1730135;83;21352;-82
2023/06/22 14:14:41;;;;;;;7.90;3.70;;;;;;;31.02;25.69;100465.45;1729649;83;21305;-81
2023/06/22 14:17:47;;;;;;;6.00;3.30;;;;;;;31.04;24.98;100456.08;1731205;83;21282;-82
2023/06/22 14:20:53;;;;;;;6.55;3.25;;;;;;;30.84;25.52;100465.49;1730820;83;21348;-82